createdAt,value
2023-03-03T00:00:56.246Z,3.30
2023-03-03T00:03:25.738Z,3.40
2023-03-03T00:05:53.362Z,3.30
2023-03-03T00:08:21.092Z,3.20
2023-03-03T00:10:48.022Z,3.20
2023-03-03T00:13:18.224Z,3.20
2023-03-03T00:15:45.726Z,3.10
2023-03-03T00:18:30.258Z,3.10
2023-03-03T00:21:01.008Z,3.10
2023-03-03T00:23:39.020Z,3.10
2023-03-03T00:26:31.020Z,3.10
2023-03-03T00:28:57.847Z,3.10
2023-03-03T00:31:33.496Z,3.10
2023-03-03T00:34:21.039Z,3.10
2023-03-03T00:36:51.368Z,3.00
2023-03-03T00:39:37.164Z,3.00
2023-03-03T00:42:17.367Z,2.90
2023-03-03T00:45:00.389Z,2.90
2023-03-03T00:47:38.469Z,3.00
2023-03-03T00:50:11.044Z,3.00
2023-03-03T00:52:51.769Z,2.90
2023-03-03T00:55:18.571Z,2.90
2023-03-03T00:57:45.518Z,2.80
2023-03-03T01:00:13.172Z,2.80
2023-03-03T01:02:40.021Z,2.80
2023-03-03T01:05:07.133Z,2.80
2023-03-03T01:07:33.884Z,2.80
2023-03-03T01:10:00.562Z,2.80
2023-03-03T01:12:27.321Z,2.80
2023-03-03T01:14:55.407Z,2.80
2023-03-03T01:17:22.191Z,2.70
2023-03-03T01:19:49.081Z,2.70
2023-03-03T01:22:15.855Z,2.80
2023-03-03T01:24:42.669Z,2.70
2023-03-03T01:27:09.342Z,2.50
2023-03-03T01:29:36.101Z,2.50
2023-03-03T01:32:03.055Z,2.40
2023-03-03T01:34:29.866Z,2.50
2023-03-03T01:36:56.627Z,2.50
2023-03-03T01:39:23.504Z,2.40
2023-03-03T01:41:50.260Z,2.40
2023-03-03T01:44:17.497Z,2.30
2023-03-03T01:46:47.121Z,2.30
2023-03-03T01:49:22.693Z,2.20
2023-03-03T01:51:58.356Z,2.20
2023-03-03T01:54:35.641Z,2.10
2023-03-03T01:57:07.594Z,2.10
2023-03-03T01:59:38.027Z,2.10
2023-03-03T02:02:05.310Z,2.00
2023-03-03T02:04:32.497Z,1.90
2023-03-03T02:07:04.408Z,1.80
2023-03-03T02:09:52.506Z,1.90
2023-03-03T02:12:22.534Z,1.80
2023-03-03T02:14:49.430Z,1.80
2023-03-03T02:17:16.892Z,1.80
2023-03-03T02:20:08.622Z,1.70
2023-03-03T02:22:47.764Z,1.70
2023-03-03T02:25:26.882Z,1.70
2023-03-03T02:27:53.776Z,1.70
2023-03-03T02:30:22.702Z,1.70
2023-03-03T02:32:49.356Z,1.80
2023-03-03T02:35:29.021Z,1.70
2023-03-03T02:38:09.684Z,1.70
2023-03-03T02:40:42.401Z,1.70
2023-03-03T02:43:11.354Z,1.60
2023-03-03T02:45:43.592Z,1.70
2023-03-03T02:48:10.775Z,1.70
2023-03-03T02:50:37.668Z,1.70
2023-03-03T02:53:04.436Z,1.70
2023-03-03T02:55:31.268Z,1.80
2023-03-03T02:57:58.240Z,1.80
2023-03-03T03:00:24.978Z,1.70
2023-03-03T03:02:51.714Z,1.70
2023-03-03T03:05:18.600Z,1.70
2023-03-03T03:07:45.341Z,1.70
2023-03-03T03:10:12.099Z,1.60
2023-03-03T03:12:38.848Z,1.70
2023-03-03T03:15:06.167Z,1.70
2023-03-03T03:17:32.928Z,1.70
2023-03-03T03:19:59.633Z,1.70
2023-03-03T03:22:26.423Z,1.80
2023-03-03T03:24:53.169Z,1.80
2023-03-03T03:27:20.055Z,1.80
2023-03-03T03:29:46.805Z,1.80
2023-03-03T03:32:13.610Z,1.90
2023-03-03T03:34:40.328Z,1.90
2023-03-03T03:37:09.891Z,1.90
2023-03-03T03:39:36.903Z,1.80
2023-03-03T03:42:03.739Z,1.80
2023-03-03T03:44:30.808Z,1.80
2023-03-03T03:46:57.661Z,1.80
2023-03-03T03:49:24.412Z,1.80
2023-03-03T03:51:51.111Z,1.80
2023-03-03T03:54:17.881Z,1.80
2023-03-03T03:56:44.570Z,1.80
2023-03-03T03:59:11.329Z,1.90
2023-03-03T04:01:38.075Z,1.90
2023-03-03T04:04:05.164Z,1.90
2023-03-03T04:06:32.464Z,1.90
2023-03-03T04:08:59.266Z,2.00
2023-03-03T04:11:25.933Z,2.00
2023-03-03T04:13:52.616Z,2.00
2023-03-03T04:16:19.325Z,2.10
2023-03-03T04:18:46.775Z,2.00
2023-03-03T04:21:15.429Z,2.00
2023-03-03T04:23:42.538Z,2.00
2023-03-03T04:26:09.702Z,2.00
2023-03-03T04:28:36.492Z,2.00
2023-03-03T04:31:03.413Z,1.90
2023-03-03T04:33:30.603Z,1.90
2023-03-03T04:35:57.450Z,1.90
2023-03-03T04:38:24.241Z,1.90
2023-03-03T04:40:50.971Z,1.80
2023-03-03T04:43:17.823Z,1.80
2023-03-03T04:45:44.670Z,1.90
2023-03-03T04:48:11.579Z,1.90
2023-03-03T04:50:38.357Z,1.90
2023-03-03T04:53:05.282Z,1.90
2023-03-03T04:55:32.055Z,1.90
2023-03-03T04:57:58.838Z,1.90
2023-03-03T05:00:25.621Z,1.90
2023-03-03T05:02:52.640Z,1.90
2023-03-03T05:05:19.427Z,1.90
2023-03-03T05:07:46.264Z,2.00
2023-03-03T05:10:13.063Z,2.00
2023-03-03T05:12:39.739Z,2.00
2023-03-03T05:15:07.229Z,2.00
2023-03-03T05:17:34.016Z,2.00
2023-03-03T05:20:00.733Z,2.00
2023-03-03T05:22:27.871Z,2.00
2023-03-03T05:24:54.668Z,2.10
2023-03-03T05:27:21.376Z,2.10
2023-03-03T05:29:48.204Z,2.10
2023-03-03T05:32:15.048Z,2.10
2023-03-03T05:34:41.869Z,2.10
2023-03-03T05:37:08.854Z,2.10
2023-03-03T05:39:35.980Z,2.20
2023-03-03T05:42:03.519Z,2.20
2023-03-03T05:44:30.347Z,2.10
2023-03-03T05:46:57.797Z,2.10
2023-03-03T05:49:25.265Z,2.10
2023-03-03T05:51:52.300Z,2.20
2023-03-03T05:54:19.018Z,2.30
2023-03-03T05:56:45.660Z,2.30
2023-03-03T05:59:12.373Z,2.40
2023-03-03T06:01:39.257Z,2.50
2023-03-03T06:04:06.087Z,2.40
2023-03-03T06:06:32.812Z,2.40
2023-03-03T06:08:59.476Z,2.40
2023-03-03T06:11:26.262Z,2.40
2023-03-03T06:13:53.075Z,2.30
2023-03-03T06:16:20.697Z,2.30
2023-03-03T06:18:47.409Z,2.30
2023-03-03T06:21:14.164Z,2.30
2023-03-03T06:23:41.336Z,2.20
2023-03-03T06:26:08.111Z,2.30
2023-03-03T06:28:34.875Z,2.20
2023-03-03T06:31:01.592Z,2.20
2023-03-03T06:33:28.426Z,2.20
2023-03-03T06:35:55.201Z,2.20
2023-03-03T06:38:21.986Z,2.20
2023-03-03T06:40:48.730Z,2.20
2023-03-03T06:43:15.590Z,2.20
2023-03-03T06:45:43.479Z,2.20
2023-03-03T06:48:10.201Z,2.20
2023-03-03T06:50:37.141Z,2.20
2023-03-03T06:53:16.113Z,2.30
2023-03-03T06:55:44.796Z,2.30
2023-03-03T06:58:16.726Z,2.30
2023-03-03T07:01:02.200Z,2.30
2023-03-03T07:03:35.440Z,2.30
2023-03-03T07:06:14.666Z,2.30
2023-03-03T07:08:41.632Z,2.40
2023-03-03T07:11:16.108Z,2.40
2023-03-03T07:13:50.050Z,2.40
2023-03-03T07:16:18.721Z,2.40
2023-03-03T07:18:56.322Z,2.30
2023-03-03T07:21:30.731Z,2.40
2023-03-03T07:23:58.350Z,2.50
2023-03-03T07:26:30.710Z,2.50
2023-03-03T07:29:28.592Z,2.50
2023-03-03T07:31:57.851Z,2.50
2023-03-03T07:34:31.286Z,2.60
2023-03-03T07:37:01.660Z,2.60
2023-03-03T07:39:37.254Z,2.50
2023-03-03T07:42:21.121Z,2.60
2023-03-03T07:44:50.521Z,2.60
2023-03-03T07:47:29.879Z,2.50
2023-03-03T07:50:20.158Z,2.50
2023-03-03T07:53:00.901Z,2.40
2023-03-03T07:55:31.046Z,2.40
2023-03-03T07:58:17.878Z,2.50
2023-03-03T08:01:21.732Z,2.50
2023-03-03T08:03:51.093Z,2.60
2023-03-03T08:06:36.016Z,2.60
2023-03-03T08:09:11.987Z,2.60
2023-03-03T08:11:51.585Z,2.50
2023-03-03T08:14:31.406Z,2.60
2023-03-03T08:17:00.596Z,2.70
2023-03-03T08:19:31.137Z,2.80
2023-03-03T08:22:07.076Z,2.90
2023-03-03T08:24:33.810Z,2.80
2023-03-03T08:27:00.592Z,2.80
2023-03-03T08:29:27.384Z,2.80
2023-03-03T08:31:54.304Z,2.70
2023-03-03T08:34:21.129Z,2.70
2023-03-03T08:36:47.895Z,2.90
2023-03-03T08:39:14.726Z,2.90
2023-03-03T08:41:43.837Z,3.00
2023-03-03T08:44:11.354Z,3.00
2023-03-03T08:46:38.863Z,3.00
2023-03-03T08:49:05.770Z,3.00
2023-03-03T08:51:34.461Z,3.00
2023-03-03T08:54:01.239Z,3.10
2023-03-03T08:56:28.016Z,3.10
2023-03-03T08:59:02.316Z,3.10
2023-03-03T09:01:31.574Z,3.10
2023-03-03T09:03:58.455Z,3.00
2023-03-03T09:06:25.227Z,3.00
2023-03-03T09:08:52.002Z,3.00
2023-03-03T09:11:26.208Z,3.10
2023-03-03T09:14:11.320Z,3.20
2023-03-03T09:16:40.496Z,3.20
2023-03-03T09:19:30.791Z,3.20
2023-03-03T09:22:02.285Z,3.10
2023-03-03T09:24:31.117Z,3.20
2023-03-03T09:26:59.512Z,3.20
2023-03-03T09:29:35.795Z,3.30
2023-03-03T09:32:22.384Z,3.30
2023-03-03T09:34:49.165Z,3.40
2023-03-03T09:37:26.519Z,3.40
2023-03-03T09:39:55.561Z,3.50
2023-03-03T09:42:42.973Z,3.40
2023-03-03T09:45:22.210Z,3.50
2023-03-03T09:48:00.841Z,3.60
2023-03-03T09:50:44.879Z,3.70
2023-03-03T09:53:45.590Z,3.70
2023-03-03T09:56:21.162Z,3.60
2023-03-03T09:58:58.441Z,3.60
2023-03-03T10:01:52.785Z,3.60
2023-03-03T10:04:31.275Z,3.60
2023-03-03T10:07:19.824Z,3.60
2023-03-03T10:10:04.541Z,3.60
2023-03-03T10:12:53.738Z,3.70
2023-03-03T10:15:29.225Z,3.80
2023-03-03T10:18:07.742Z,3.90
2023-03-03T10:20:52.402Z,4.10
2023-03-03T10:23:22.690Z,4.20
2023-03-03T10:26:10.308Z,4.20
2023-03-03T10:29:22.210Z,4.30
2023-03-03T10:32:14.847Z,4.30
2023-03-03T10:35:00.609Z,4.40
2023-03-03T10:38:02.168Z,4.50
2023-03-03T10:40:42.873Z,4.50
2023-03-03T10:43:38.239Z,4.50
2023-03-03T10:46:32.782Z,4.70
2023-03-03T10:49:33.572Z,4.80
2023-03-03T10:52:18.042Z,4.60
2023-03-03T10:55:05.256Z,4.80
2023-03-03T10:57:42.799Z,4.80
2023-03-03T11:00:41.465Z,4.80
2023-03-03T11:03:38.621Z,4.80
2023-03-03T11:06:32.982Z,4.80
2023-03-03T11:09:37.698Z,5.00
2023-03-03T11:12:10.775Z,5.00
2023-03-03T11:15:00.273Z,5.20
2023-03-03T11:17:47.028Z,5.30
2023-03-03T11:20:20.455Z,5.30
2023-03-03T11:23:02.583Z,5.20
2023-03-03T11:25:32.445Z,5.20
2023-03-03T11:28:24.811Z,5.40
2023-03-03T11:31:02.356Z,5.40
2023-03-03T11:34:06.888Z,5.60
2023-03-03T11:37:08.705Z,5.70
2023-03-03T11:39:37.060Z,5.50
2023-03-03T11:42:13.028Z,5.30
2023-03-03T11:44:46.932Z,5.30
2023-03-03T11:47:19.951Z,5.50
2023-03-03T11:50:00.369Z,5.50
2023-03-03T11:52:48.777Z,5.60
2023-03-03T11:55:17.074Z,5.80
2023-03-03T11:57:53.709Z,5.80
2023-03-03T12:00:24.273Z,5.70
2023-03-03T12:03:15.640Z,5.70
2023-03-03T12:05:45.149Z,5.90
2023-03-03T12:08:33.261Z,6.10
2023-03-03T12:11:05.952Z,6.20
2023-03-03T12:13:54.121Z,6.00
2023-03-03T12:16:52.917Z,5.80
2023-03-03T12:19:41.037Z,5.80
2023-03-03T12:22:31.072Z,5.90
2023-03-03T12:25:16.566Z,6.00
2023-03-03T12:28:21.048Z,6.10
2023-03-03T12:31:05.737Z,6.00
2023-03-03T12:33:50.271Z,6.10
2023-03-03T12:36:32.036Z,6.20
2023-03-03T12:39:43.188Z,6.30
2023-03-03T12:42:27.964Z,6.10
2023-03-03T12:45:21.770Z,6.20
2023-03-03T12:47:59.557Z,6.10
2023-03-03T12:50:51.537Z,6.10
2023-03-03T12:53:44.552Z,6.20
2023-03-03T12:56:33.205Z,6.00
2023-03-03T12:59:11.565Z,6.10
2023-03-03T13:02:04.472Z,6.00
2023-03-03T13:04:36.648Z,5.90
2023-03-03T13:07:28.796Z,5.90
2023-03-03T13:10:21.287Z,5.90
2023-03-03T13:13:21.323Z,5.80
2023-03-03T13:16:06.127Z,5.80
2023-03-03T13:18:51.021Z,6.00
2023-03-03T13:21:54.968Z,6.10
2023-03-03T13:24:55.523Z,6.10
2023-03-03T13:27:27.553Z,6.30
2023-03-03T13:30:00.944Z,6.20
2023-03-03T13:32:58.344Z,6.30
2023-03-03T13:35:31.822Z,6.10
2023-03-03T13:38:02.527Z,5.90
2023-03-03T13:40:45.992Z,6.00
2023-03-03T13:43:21.032Z,6.00
2023-03-03T13:46:09.817Z,6.10
2023-03-03T13:48:55.146Z,6.30
2023-03-03T13:52:01.690Z,6.40
2023-03-03T13:54:43.793Z,6.40
2023-03-03T13:57:44.065Z,6.20
2023-03-03T14:00:27.151Z,5.90
2023-03-03T14:03:35.747Z,6.00
2023-03-03T14:06:24.652Z,6.30
2023-03-03T14:09:03.367Z,6.40
2023-03-03T14:11:44.445Z,6.70
2023-03-03T14:14:44.580Z,7.30
2023-03-03T14:17:29.909Z,7.90
2023-03-03T14:20:21.854Z,7.90
2023-03-03T14:22:53.443Z,7.90
2023-03-03T14:25:20.804Z,8.40
2023-03-03T14:27:47.559Z,8.30
2023-03-03T14:30:27.032Z,8.20
2023-03-03T14:33:16.125Z,8.30
2023-03-03T14:35:49.987Z,8.30
2023-03-03T14:38:19.443Z,8.70
2023-03-03T14:40:48.061Z,8.60
2023-03-03T14:43:40.495Z,8.00
2023-03-03T14:46:30.376Z,7.80
2023-03-03T14:49:02.687Z,7.40
2023-03-03T14:51:47.389Z,7.20
2023-03-03T14:54:28.325Z,7.20
2023-03-03T14:57:12.208Z,7.20
2023-03-03T14:59:40.871Z,7.00
2023-03-03T15:02:29.642Z,6.60
2023-03-03T15:05:28.325Z,6.50
2023-03-03T15:08:04.145Z,6.40
2023-03-03T15:10:38.160Z,6.30
2023-03-03T15:13:19.965Z,6.20
2023-03-03T15:16:09.213Z,6.20
2023-03-03T15:18:54.697Z,6.20
2023-03-03T15:21:26.815Z,6.00
2023-03-03T15:23:53.536Z,5.90
2023-03-03T15:26:35.620Z,5.80
2023-03-03T15:29:13.446Z,5.60
2023-03-03T15:32:19.608Z,5.60
2023-03-03T15:35:07.313Z,5.60
2023-03-03T15:37:55.577Z,5.60
2023-03-03T15:40:33.997Z,5.60
2023-03-03T15:43:10.471Z,5.50
2023-03-03T15:45:52.880Z,5.50
2023-03-03T15:48:47.233Z,5.50
2023-03-03T15:51:32.266Z,5.40
2023-03-03T15:54:30.539Z,5.40
2023-03-03T15:57:13.209Z,5.20
2023-03-03T16:00:17.990Z,5.20
2023-03-03T16:02:52.930Z,5.10
2023-03-03T16:05:46.653Z,5.10
2023-03-03T16:09:00.608Z,5.10
2023-03-03T16:11:33.624Z,5.10
2023-03-03T16:14:36.762Z,5.20
2023-03-03T16:17:32.659Z,5.10
2023-03-03T16:20:02.466Z,5.10
2023-03-03T16:22:56.430Z,5.10
2023-03-03T16:25:54.872Z,5.10
2023-03-03T16:29:05.249Z,5.00
2023-03-03T16:31:42.588Z,5.00
2023-03-03T16:34:30.597Z,4.90
2023-03-03T16:37:24.131Z,4.90
2023-03-03T16:39:58.559Z,4.90
2023-03-03T16:42:29.689Z,4.90
2023-03-03T16:45:26.634Z,4.90
2023-03-03T16:48:11.837Z,4.90
2023-03-03T16:50:45.040Z,4.90
2023-03-03T16:53:39.284Z,4.90
2023-03-03T16:56:32.336Z,5.00
2023-03-03T16:59:04.694Z,5.00
2023-03-03T17:02:08.968Z,4.90
2023-03-03T17:05:14.266Z,4.90
2023-03-03T17:07:56.576Z,4.80
2023-03-03T17:10:44.652Z,4.80
2023-03-03T17:13:20.208Z,4.80
2023-03-03T17:16:11.932Z,4.70
2023-03-03T17:19:16.476Z,4.70
2023-03-03T17:22:05.346Z,4.70
2023-03-03T17:24:56.441Z,4.70
2023-03-03T17:27:38.245Z,4.70
2023-03-03T17:30:22.409Z,4.70
2023-03-03T17:33:02.362Z,4.70
2023-03-03T17:36:04.171Z,4.70
2023-03-03T17:39:12.178Z,4.60
2023-03-03T17:41:53.695Z,4.70
2023-03-03T17:44:35.985Z,4.70
2023-03-03T17:47:08.252Z,4.60
2023-03-03T17:49:43.865Z,4.70
2023-03-03T17:52:24.612Z,4.80
2023-03-03T17:55:27.884Z,4.80
2023-03-03T17:58:23.155Z,4.60
2023-03-03T18:01:04.939Z,4.50
2023-03-03T18:03:49.500Z,4.40
2023-03-03T18:06:54.152Z,4.60
2023-03-03T18:09:45.084Z,4.50
2023-03-03T18:12:29.788Z,4.50
2023-03-03T18:15:17.618Z,4.40
2023-03-03T18:17:45.626Z,4.30
2023-03-03T18:20:18.417Z,4.30
2023-03-03T18:22:48.202Z,4.30
2023-03-03T18:25:21.671Z,4.30
2023-03-03T18:28:08.543Z,4.30
2023-03-03T18:30:53.354Z,4.20
2023-03-03T18:33:55.287Z,4.20
2023-03-03T18:36:28.416Z,4.20
2023-03-03T18:38:56.741Z,4.10
2023-03-03T18:41:27.252Z,4.20
2023-03-03T18:43:57.164Z,4.30
2023-03-03T18:46:24.117Z,4.30
2023-03-03T18:49:08.366Z,4.30
2023-03-03T18:51:37.803Z,4.40
2023-03-03T18:54:17.317Z,4.30
2023-03-03T18:57:15.469Z,4.20
2023-03-03T18:59:52.609Z,4.20
2023-03-03T19:02:22.098Z,4.20
2023-03-03T19:04:56.016Z,4.20
2023-03-03T19:07:28.971Z,4.20
2023-03-03T19:10:07.765Z,4.10
2023-03-03T19:12:46.541Z,4.00
2023-03-03T19:15:33.570Z,4.00
2023-03-03T19:18:20.261Z,4.00
2023-03-03T19:20:55.030Z,4.00
2023-03-03T19:23:48.764Z,4.00
2023-03-03T19:26:30.409Z,3.90
2023-03-03T19:29:21.765Z,3.90
2023-03-03T19:32:48.471Z,4.00
2023-03-03T19:35:35.195Z,4.00
2023-03-03T19:38:26.753Z,4.00
2023-03-03T19:41:00.868Z,4.00
2023-03-03T19:43:46.508Z,3.90
2023-03-03T19:46:27.189Z,3.90
2023-03-03T19:49:18.511Z,3.90
2023-03-03T19:51:56.848Z,3.90
2023-03-03T19:54:44.121Z,3.90
2023-03-03T19:57:32.560Z,4.00
2023-03-03T20:00:09.377Z,3.90
2023-03-03T20:03:06.164Z,4.00
2023-03-03T20:05:48.323Z,4.00
2023-03-03T20:08:30.195Z,4.10
2023-03-03T20:11:49.554Z,4.10
2023-03-03T20:14:54.909Z,4.00
2023-03-03T20:17:35.380Z,3.90
2023-03-03T20:20:36.322Z,4.00
2023-03-03T20:23:29.681Z,3.90
2023-03-03T20:26:35.035Z,3.80
2023-03-03T20:29:36.048Z,3.80
2023-03-03T20:32:40.599Z,3.90
2023-03-03T20:35:16.559Z,4.00
2023-03-03T20:37:49.240Z,4.00
2023-03-03T20:40:52.587Z,4.00
2023-03-03T20:43:37.395Z,4.10
2023-03-03T20:46:29.126Z,4.00
2023-03-03T20:49:23.902Z,4.00
2023-03-03T20:51:56.598Z,4.00
2023-03-03T20:54:35.002Z,4.10
2023-03-03T20:57:33.985Z,4.20
2023-03-03T21:00:07.025Z,4.20
2023-03-03T21:03:00.231Z,4.10
2023-03-03T21:05:27.147Z,4.00
2023-03-03T21:08:03.035Z,4.00
2023-03-03T21:10:35.755Z,4.20
2023-03-03T21:13:37.199Z,4.30
2023-03-03T21:16:10.640Z,4.20
2023-03-03T21:18:37.544Z,4.10
2023-03-03T21:21:05.119Z,4.10
2023-03-03T21:23:31.954Z,4.20
2023-03-03T21:25:58.871Z,4.30
2023-03-03T21:28:27.461Z,4.30
2023-03-03T21:31:12.391Z,4.20
2023-03-03T21:33:51.187Z,4.20
2023-03-03T21:36:38.187Z,4.30
2023-03-03T21:39:36.827Z,4.30
2023-03-03T21:42:08.202Z,4.30
2023-03-03T21:44:46.850Z,4.40
2023-03-03T21:47:16.738Z,4.30
2023-03-03T21:49:45.448Z,4.30
2023-03-03T21:52:14.931Z,4.40
2023-03-03T21:54:42.155Z,4.30
2023-03-03T21:57:09.317Z,4.40
2023-03-03T21:59:36.955Z,4.40
2023-03-03T22:02:06.801Z,4.30
2023-03-03T22:04:33.820Z,4.40
2023-03-03T22:07:01.105Z,4.40
2023-03-03T22:09:27.849Z,4.40
2023-03-03T22:11:54.917Z,4.40
2023-03-03T22:14:21.681Z,4.40
2023-03-03T22:16:48.436Z,4.50
2023-03-03T22:19:15.211Z,4.60
2023-03-03T22:21:41.990Z,4.70
2023-03-03T22:24:09.131Z,4.80
2023-03-03T22:26:36.282Z,4.70
2023-03-03T22:29:03.145Z,4.60
2023-03-03T22:31:30.108Z,4.70
2023-03-03T22:33:57.084Z,4.70
2023-03-03T22:36:23.860Z,4.70
2023-03-03T22:38:50.681Z,4.80
2023-03-03T22:41:18.087Z,4.90
2023-03-03T22:43:45.078Z,4.80
2023-03-03T22:46:12.172Z,4.90
2023-03-03T22:48:39.217Z,4.90
2023-03-03T22:51:06.380Z,4.90
2023-03-03T22:53:33.451Z,5.00
2023-03-03T22:56:00.345Z,4.90
2023-03-03T22:58:27.182Z,4.90
2023-03-03T23:00:54.573Z,4.90
2023-03-03T23:03:22.002Z,4.80
2023-03-03T23:05:51.656Z,4.80
2023-03-03T23:08:19.109Z,4.80
2023-03-03T23:10:46.425Z,4.80
2023-03-03T23:13:13.645Z,4.70
2023-03-03T23:15:40.624Z,4.80
2023-03-03T23:18:07.700Z,4.70
2023-03-03T23:20:34.872Z,4.80
2023-03-03T23:23:01.685Z,4.60
2023-03-03T23:25:28.993Z,4.70
2023-03-03T23:27:56.322Z,4.70
2023-03-03T23:30:23.788Z,4.70
2023-03-03T23:32:50.889Z,4.70
2023-03-03T23:35:17.922Z,4.70
2023-03-03T23:37:45.965Z,4.70
2023-03-03T23:40:14.763Z,4.70
2023-03-03T23:42:41.717Z,4.80
2023-03-03T23:45:09.550Z,4.80
2023-03-03T23:47:36.858Z,4.90
2023-03-03T23:50:04.565Z,4.90
2023-03-03T23:52:31.339Z,4.90
2023-03-03T23:54:58.201Z,4.80
2023-03-03T23:57:25.043Z,4.90
2023-03-03T23:59:51.815Z,4.90
